createdAt,value
2018-07-06T00:02:00.393Z,6.00
2018-07-06T00:04:40.544Z,6.97
2018-07-06T00:07:20.485Z,10.53
2018-07-06T00:10:00.485Z,7.97
2018-07-06T00:12:40.546Z,8.43
2018-07-06T00:15:20.523Z,7.87
2018-07-06T00:18:00.549Z,7.47
2018-07-06T00:20:40.432Z,9.90
2018-07-06T00:23:14.197Z,9.70
2018-07-06T00:25:54.243Z,8.00
2018-07-06T00:28:34.508Z,14.63
2018-07-06T00:31:14.232Z,11.70
2018-07-06T00:33:54.367Z,9.00
2018-07-06T00:36:34.300Z,8.53
2018-07-06T00:39:14.121Z,10.97
2018-07-06T00:41:47.939Z,7.23
2018-07-06T00:44:27.778Z,6.90
2018-07-06T00:47:07.543Z,9.70
2018-07-06T00:49:41.160Z,6.73
2018-07-06T00:52:20.853Z,9.70
2018-07-06T00:55:00.932Z,7.00
2018-07-06T00:57:56.529Z,7.10
2018-07-06T01:00:36.136Z,6.13
2018-07-06T01:03:16.121Z,7.90
2018-07-06T01:05:55.805Z,7.27
2018-07-06T01:08:35.560Z,7.87
2018-07-06T01:11:15.839Z,7.47
2018-07-06T01:13:55.652Z,7.60
2018-07-06T01:16:35.364Z,7.90
2018-07-06T01:19:15.041Z,8.33
2018-07-06T01:21:54.900Z,7.53
2018-07-06T01:24:34.682Z,9.77
2018-07-06T01:27:14.412Z,9.43
2018-07-06T01:29:54.140Z,8.90
2018-07-06T01:32:33.757Z,9.37
2018-07-06T01:35:13.578Z,9.90
2018-07-06T01:38:01.694Z,9.07
2018-07-06T01:40:46.207Z,8.90
2018-07-06T01:43:30.451Z,9.83
2018-07-06T01:46:18.438Z,8.10
2018-07-06T01:48:58.240Z,9.70
2018-07-06T01:51:38.536Z,8.40
2018-07-06T01:54:18.171Z,11.20
2018-07-06T01:56:57.847Z,9.03
2018-07-06T01:59:37.807Z,12.00
2018-07-06T02:02:17.476Z,9.43
2018-07-06T02:04:57.207Z,9.73
2018-07-06T02:07:36.869Z,14.53
2018-07-06T02:10:16.720Z,10.87
2018-07-06T02:12:56.392Z,9.87
2018-07-06T02:15:36.022Z,11.03
2018-07-06T02:18:15.803Z,8.73
2018-07-06T02:20:55.580Z,12.67
2018-07-06T02:23:35.140Z,11.17
2018-07-06T02:26:14.988Z,18.40
2018-07-06T02:28:54.946Z,20.10
2018-07-06T02:31:34.645Z,10.60
2018-07-06T02:34:14.424Z,9.03
2018-07-06T02:36:54.810Z,11.07
2018-07-06T02:39:34.364Z,11.20
2018-07-06T02:42:13.997Z,12.97
2018-07-06T02:44:53.505Z,13.60
2018-07-06T02:47:33.153Z,16.37
2018-07-06T02:50:12.905Z,10.20
2018-07-06T02:52:52.486Z,16.20
2018-07-06T02:55:32.014Z,17.00
2018-07-06T02:58:11.633Z,13.50
2018-07-06T03:00:51.196Z,14.50
2018-07-06T03:03:30.897Z,11.80
2018-07-06T03:06:10.703Z,14.53
2018-07-06T03:08:50.140Z,11.90
2018-07-06T03:11:29.936Z,15.37
2018-07-06T03:14:09.617Z,16.67
2018-07-06T03:16:49.566Z,14.80
2018-07-06T03:19:29.439Z,11.90
2018-07-06T03:22:09.314Z,17.20
2018-07-06T03:24:49.143Z,16.00
2018-07-06T03:27:28.981Z,15.10
2018-07-06T03:30:08.749Z,16.83
2018-07-06T03:32:48.525Z,13.70
2018-07-06T03:35:28.565Z,14.33
2018-07-06T03:38:08.551Z,17.37
2018-07-06T03:40:48.300Z,18.43
2018-07-06T03:43:28.018Z,14.93
2018-07-06T03:46:07.890Z,18.43
2018-07-06T03:48:48.708Z,18.87
2018-07-06T03:51:37.842Z,14.53
2018-07-06T03:54:17.777Z,13.80
2018-07-06T03:56:57.328Z,19.33
2018-07-06T03:59:36.997Z,14.17
2018-07-06T04:02:16.609Z,13.23
2018-07-06T04:04:56.262Z,14.20
2018-07-06T04:07:35.829Z,16.80
2018-07-06T04:10:15.550Z,14.77
2018-07-06T04:13:03.135Z,23.03
2018-07-06T04:15:43.360Z,15.20
2018-07-06T04:18:23.105Z,16.03
2018-07-06T04:21:03.098Z,14.43
2018-07-06T04:23:43.055Z,13.03
2018-07-06T04:26:22.733Z,16.70
2018-07-06T04:29:02.634Z,14.67
2018-07-06T04:31:42.734Z,15.33
2018-07-06T04:34:22.721Z,22.70
2018-07-06T04:37:02.740Z,13.33
2018-07-06T04:39:42.685Z,16.33
2018-07-06T04:42:23.624Z,14.73
2018-07-06T04:45:03.259Z,16.40
2018-07-06T04:47:43.156Z,14.30
2018-07-06T04:50:23.045Z,15.30
2018-07-06T04:53:02.787Z,15.27
2018-07-06T04:55:42.314Z,13.60
2018-07-06T04:58:22.032Z,14.47
2018-07-06T05:01:01.992Z,12.87
2018-07-06T05:03:41.711Z,15.27
2018-07-06T05:06:21.379Z,12.83
2018-07-06T05:09:00.931Z,12.87
2018-07-06T05:11:40.490Z,13.73
2018-07-06T05:14:20.100Z,13.37
2018-07-06T05:16:59.619Z,19.10
2018-07-06T05:19:39.318Z,15.53
2018-07-06T05:22:18.927Z,12.57
2018-07-06T05:24:58.704Z,14.30
2018-07-06T05:27:38.678Z,15.80
2018-07-06T05:30:18.732Z,17.73
2018-07-06T05:32:58.483Z,15.93
2018-07-06T05:35:38.233Z,17.63
2018-07-06T05:38:11.991Z,13.70
2018-07-06T05:40:51.961Z,12.47
2018-07-06T05:43:31.763Z,24.67
2018-07-06T05:46:11.632Z,23.77
2018-07-06T05:48:51.246Z,14.80
2018-07-06T05:51:24.730Z,13.70
2018-07-06T05:53:58.214Z,19.60
2018-07-06T05:56:37.950Z,16.30
2018-07-06T05:59:17.879Z,18.40
2018-07-06T06:01:57.316Z,23.80
2018-07-06T06:04:36.909Z,16.33
2018-07-06T06:07:16.633Z,19.03
2018-07-06T06:09:45.229Z,28.80
2018-07-06T06:12:13.774Z,23.77
2018-07-06T06:14:42.343Z,21.87
2018-07-06T06:17:12.188Z,22.87
2018-07-06T06:19:40.656Z,28.90
2018-07-06T06:22:09.325Z,31.77
2018-07-06T06:24:37.776Z,26.87
2018-07-06T06:27:06.574Z,27.10
2018-07-06T06:29:35.106Z,22.10
2018-07-06T06:32:05.092Z,31.00
2018-07-06T06:34:33.589Z,24.57
2018-07-06T06:37:06.640Z,30.43
2018-07-06T06:39:35.768Z,26.17
2018-07-06T06:42:04.747Z,28.00
2018-07-06T06:44:33.669Z,32.10
2018-07-06T06:47:02.326Z,18.47
2018-07-06T06:49:31.594Z,24.13
2018-07-06T06:52:00.369Z,24.93
2018-07-06T06:54:29.788Z,28.10
2018-07-06T06:56:58.275Z,27.90
2018-07-06T06:59:26.747Z,25.67
2018-07-06T07:01:55.234Z,23.53
2018-07-06T07:04:24.368Z,27.73
2018-07-06T07:06:53.106Z,19.73
2018-07-06T07:09:22.602Z,28.97
2018-07-06T07:11:51.300Z,24.10
2018-07-06T07:14:20.012Z,40.87
2018-07-06T07:16:48.704Z,27.00
2018-07-06T07:19:17.360Z,23.27
2018-07-06T07:21:45.862Z,26.07
2018-07-06T07:24:14.532Z,31.20
2018-07-06T07:26:43.200Z,22.97
2018-07-06T07:29:11.851Z,24.37
2018-07-06T07:31:40.549Z,30.00
2018-07-06T07:34:09.244Z,20.63
2018-07-06T07:36:37.869Z,22.60
2018-07-06T07:39:06.397Z,26.23
2018-07-06T07:41:43.062Z,21.57
2018-07-06T07:44:11.660Z,28.43
2018-07-06T07:46:40.226Z,28.30
2018-07-06T07:49:08.653Z,24.57
2018-07-06T07:51:59.799Z,25.53
2018-07-06T07:54:30.748Z,26.23
2018-07-06T07:57:00.361Z,31.83
2018-07-06T07:59:30.969Z,27.30
2018-07-06T08:02:00.510Z,21.90
2018-07-06T08:04:29.083Z,23.77
2018-07-06T08:06:57.649Z,24.30
2018-07-06T08:09:26.693Z,37.60
2018-07-06T08:11:57.760Z,28.30
2018-07-06T08:14:26.640Z,29.23
2018-07-06T08:16:55.262Z,22.33
2018-07-06T08:19:23.851Z,24.40
2018-07-06T08:21:53.130Z,23.33
2018-07-06T08:24:22.084Z,24.57
2018-07-06T08:26:50.698Z,28.13
2018-07-06T08:29:19.252Z,31.57
2018-07-06T08:31:47.915Z,24.27
2018-07-06T08:34:27.746Z,26.07
2018-07-06T08:37:37.784Z,20.27
2018-07-06T08:40:06.616Z,21.73
2018-07-06T08:42:35.807Z,28.38
2018-07-06T08:45:04.814Z,19.42
2018-07-06T08:47:33.276Z,18.48
2018-07-06T08:50:02.466Z,19.65
2018-07-06T08:52:31.106Z,20.43
2018-07-06T08:54:59.581Z,23.30
2018-07-06T08:57:29.466Z,20.15
2018-07-06T08:59:57.981Z,20.45
2018-07-06T09:02:27.360Z,22.30
2018-07-06T09:04:56.840Z,20.32
2018-07-06T09:07:25.645Z,20.95
2018-07-06T09:09:55.333Z,23.45
2018-07-06T09:12:24.076Z,22.20
2018-07-06T09:14:53.711Z,19.32
2018-07-06T09:17:22.837Z,22.80
2018-07-06T09:19:51.978Z,22.42
2018-07-06T09:22:20.449Z,22.67
2018-07-06T09:24:50.305Z,19.45
2018-07-06T09:27:18.747Z,20.20
2018-07-06T09:29:47.276Z,22.10
2018-07-06T09:32:15.941Z,19.55
2018-07-06T09:34:44.387Z,16.97
2018-07-06T09:37:12.703Z,15.65
2018-07-06T09:39:42.122Z,20.15
2018-07-06T09:42:10.765Z,18.85
2018-07-06T09:44:39.556Z,20.12
2018-07-06T09:47:08.489Z,17.10
2018-07-06T09:49:37.214Z,20.30
2018-07-06T09:52:05.696Z,19.87
2018-07-06T09:54:34.141Z,19.85
2018-07-06T09:57:02.608Z,17.75
2018-07-06T09:59:31.136Z,19.05
2018-07-06T10:01:59.689Z,20.45
2018-07-06T10:04:29.624Z,18.87
2018-07-06T10:06:58.298Z,22.40
2018-07-06T10:09:26.928Z,21.15
2018-07-06T10:11:55.781Z,21.02
2018-07-06T10:14:24.437Z,22.52
2018-07-06T10:16:53.782Z,21.62
2018-07-06T10:19:22.528Z,21.70
2018-07-06T10:21:51.016Z,21.17
2018-07-06T10:24:19.739Z,20.20
2018-07-06T10:26:48.208Z,22.35
2018-07-06T10:30:57.221Z,21.27
2018-07-06T10:33:26.182Z,19.35
2018-07-06T10:35:54.613Z,19.70
2018-07-06T10:38:23.201Z,29.67
2018-07-06T10:40:51.656Z,20.00
2018-07-06T10:43:20.093Z,20.52
2018-07-06T10:45:48.552Z,19.23
2018-07-06T10:48:17.005Z,24.40
2018-07-06T10:50:45.747Z,24.12
2018-07-06T10:53:14.341Z,24.72
2018-07-06T10:55:42.807Z,24.07
2018-07-06T10:58:11.281Z,22.82
2018-07-06T11:00:39.786Z,23.87
2018-07-06T11:03:08.023Z,19.77
2018-07-06T11:05:36.486Z,20.15
2018-07-06T11:08:05.118Z,21.65
2018-07-06T11:10:33.596Z,21.75
2018-07-06T11:13:02.054Z,24.02
2018-07-06T11:15:30.620Z,21.52
2018-07-06T11:17:59.522Z,19.20
2018-07-06T11:20:28.708Z,19.37
2018-07-06T11:22:57.277Z,20.10
2018-07-06T11:25:25.762Z,20.50
2018-07-06T11:27:54.221Z,18.75
2018-07-06T11:30:22.665Z,20.08
2018-07-06T11:32:51.205Z,19.55
2018-07-06T11:35:19.902Z,14.73
2018-07-06T11:37:48.490Z,21.35
2018-07-06T11:40:17.083Z,22.00
2018-07-06T11:42:46.049Z,29.98
2018-07-06T11:45:14.502Z,21.95
2018-07-06T11:47:43.064Z,20.80
2018-07-06T11:50:11.505Z,22.67
2018-07-06T11:52:40.148Z,23.83
2018-07-06T11:55:08.764Z,25.17
2018-07-06T11:57:37.213Z,21.02
2018-07-06T12:00:06.106Z,22.17
2018-07-06T12:02:34.624Z,22.52
2018-07-06T12:05:03.129Z,21.37
2018-07-06T12:07:31.740Z,26.70
2018-07-06T12:10:00.329Z,20.72
2018-07-06T12:12:28.824Z,27.00
2018-07-06T12:14:57.865Z,17.20
2018-07-06T12:17:26.462Z,14.73
2018-07-06T12:19:54.943Z,20.20
2018-07-06T12:22:23.644Z,17.75
2018-07-06T12:24:52.253Z,23.70
2018-07-06T12:27:20.708Z,18.17
2018-07-06T12:29:49.301Z,18.92
2018-07-06T12:32:17.886Z,18.98
2018-07-06T12:34:46.505Z,20.05
2018-07-06T12:37:14.984Z,22.52
2018-07-06T12:39:43.419Z,15.50
2018-07-06T12:42:12.304Z,17.52
2018-07-06T12:44:40.790Z,18.50
2018-07-06T12:47:09.305Z,18.13
2018-07-06T12:49:37.806Z,20.85
2018-07-06T12:52:06.318Z,16.30
2018-07-06T12:54:34.748Z,16.45
2018-07-06T12:57:03.319Z,14.05
2018-07-06T12:59:32.242Z,14.05
2018-07-06T13:02:00.730Z,14.23
2018-07-06T13:04:29.304Z,14.87
2018-07-06T13:06:58.015Z,13.15
2018-07-06T13:09:26.800Z,15.98
2018-07-06T13:11:55.263Z,21.12
2018-07-06T13:14:23.741Z,13.33
2018-07-06T13:16:52.208Z,12.55
2018-07-06T13:19:20.656Z,15.28
2018-07-06T13:21:49.146Z,13.43
2018-07-06T13:24:17.665Z,15.70
2018-07-06T13:26:46.148Z,11.88
2018-07-06T13:29:14.641Z,16.12
2018-07-06T13:31:43.284Z,12.18
2018-07-06T13:34:11.828Z,12.20
2018-07-06T13:36:40.498Z,13.10
2018-07-06T13:39:09.144Z,13.80
2018-07-06T13:41:38.014Z,13.70
2018-07-06T13:44:06.682Z,13.22
2018-07-06T13:46:35.185Z,12.68
2018-07-06T13:49:03.712Z,13.35
2018-07-06T13:51:32.374Z,10.10
2018-07-06T13:54:00.901Z,13.55
2018-07-06T13:56:29.429Z,13.10
2018-07-06T13:58:57.932Z,12.90
2018-07-06T14:01:26.465Z,15.10
2018-07-06T14:03:55.132Z,10.45
2018-07-06T14:06:23.602Z,15.38
2018-07-06T14:08:52.048Z,17.77
2018-07-06T14:11:20.508Z,14.25
2018-07-06T14:13:49.312Z,12.28
2018-07-06T14:16:17.781Z,11.28
2018-07-06T14:18:46.595Z,12.63
2018-07-06T14:21:15.169Z,12.35
2018-07-06T14:23:43.644Z,10.80
2018-07-06T14:26:12.252Z,12.28
2018-07-06T14:28:40.743Z,12.25
2018-07-06T14:31:09.712Z,10.13
2018-07-06T14:33:38.238Z,14.10
2018-07-06T14:36:06.821Z,12.60
2018-07-06T14:38:35.429Z,13.05
2018-07-06T14:41:03.929Z,12.30
2018-07-06T14:43:32.460Z,13.50
2018-07-06T14:46:00.940Z,23.92
2018-07-06T14:48:29.656Z,12.50
2018-07-06T14:50:58.144Z,18.25
2018-07-06T14:53:26.756Z,12.58
2018-07-06T14:55:55.371Z,11.10
2018-07-06T14:58:23.870Z,12.33
2018-07-06T15:00:52.541Z,11.33
2018-07-06T15:03:21.412Z,11.05
2018-07-06T15:05:49.858Z,11.18
2018-07-06T15:08:18.462Z,12.23
2018-07-06T15:10:47.023Z,11.50
2018-07-06T15:13:15.527Z,14.20
2018-07-06T15:15:44.077Z,10.78
2018-07-06T15:18:12.578Z,11.80
2018-07-06T15:20:41.118Z,10.68
2018-07-06T15:23:09.757Z,11.12
2018-07-06T15:25:37.893Z,12.07
2018-07-06T15:28:06.358Z,12.50
2018-07-06T15:30:34.812Z,11.70
2018-07-06T15:33:03.289Z,11.33
2018-07-06T15:35:31.438Z,19.43
2018-07-06T15:37:59.921Z,14.73
2018-07-06T15:40:28.387Z,10.30
2018-07-06T15:42:57.265Z,13.10
2018-07-06T15:45:26.032Z,12.20
2018-07-06T15:47:54.504Z,12.73
2018-07-06T15:50:22.972Z,10.90
2018-07-06T15:52:51.761Z,10.97
2018-07-06T15:55:20.175Z,10.17
2018-07-06T15:57:48.788Z,12.67
2018-07-06T16:00:17.297Z,15.80
2018-07-06T16:02:45.928Z,11.03
2018-07-06T16:05:15.444Z,11.20
2018-07-06T16:07:44.110Z,9.87
2018-07-06T16:10:12.566Z,10.90
2018-07-06T16:12:41.033Z,9.90
2018-07-06T16:15:09.649Z,10.03
2018-07-06T16:17:38.174Z,8.90
2018-07-06T16:20:06.698Z,14.03
2018-07-06T16:22:35.245Z,9.50
2018-07-06T16:25:03.736Z,9.83
2018-07-06T16:27:32.404Z,9.37
2018-07-06T16:30:00.870Z,9.53
2018-07-06T16:32:29.589Z,8.47
2018-07-06T16:34:58.089Z,8.27
2018-07-06T16:37:26.579Z,9.83
2018-07-06T16:39:54.995Z,8.50
2018-07-06T16:42:23.486Z,12.83
2018-07-06T16:44:51.994Z,9.13
2018-07-06T16:47:20.792Z,8.17
2018-07-06T16:49:49.572Z,9.67
2018-07-06T16:52:20.258Z,10.33
2018-07-06T16:54:48.736Z,8.20
2018-07-06T16:57:17.784Z,13.37
2018-07-06T16:59:46.499Z,9.80
2018-07-06T17:02:15.193Z,12.30
2018-07-06T17:04:43.759Z,10.47
2018-07-06T17:07:12.208Z,9.93
2018-07-06T17:09:40.695Z,9.80
2018-07-06T17:12:09.449Z,9.87
2018-07-06T17:14:37.917Z,8.00
2018-07-06T17:17:06.485Z,9.07
2018-07-06T17:19:34.969Z,11.53
2018-07-06T17:22:03.652Z,8.57
2018-07-06T17:24:32.140Z,9.93
2018-07-06T17:27:00.576Z,8.80
2018-07-06T17:29:29.322Z,10.60
2018-07-06T17:31:57.784Z,8.23
2018-07-06T17:34:26.242Z,16.07
2018-07-06T17:36:55.109Z,10.03
2018-07-06T17:39:23.687Z,15.13
2018-07-06T17:41:53.677Z,9.43
2018-07-06T17:44:22.288Z,9.13
2018-07-06T17:46:51.169Z,11.83
2018-07-06T17:49:19.661Z,9.83
2018-07-06T17:51:48.226Z,9.80
2018-07-06T17:54:16.796Z,9.77
2018-07-06T17:56:45.278Z,9.67
2018-07-06T17:59:13.704Z,10.43
2018-07-06T18:01:42.549Z,10.30
2018-07-06T18:04:11.147Z,8.43
2018-07-06T18:06:40.042Z,9.33
2018-07-06T18:09:08.502Z,8.63
2018-07-06T18:11:37.267Z,15.33
2018-07-06T18:14:05.795Z,10.53
2018-07-06T18:16:34.636Z,8.83
2018-07-06T18:19:03.124Z,9.57
2018-07-06T18:21:31.818Z,9.73
2018-07-06T18:24:00.488Z,9.10
2018-07-06T18:26:28.924Z,9.40
2018-07-06T18:28:57.408Z,8.30
2018-07-06T18:31:26.208Z,17.33
2018-07-06T18:33:54.765Z,9.00
2018-07-06T18:36:23.412Z,8.50
2018-07-06T18:38:51.892Z,9.00
2018-07-06T18:41:20.418Z,9.33
2018-07-06T18:43:48.970Z,9.10
2018-07-06T18:46:17.769Z,10.13
2018-07-06T18:48:46.322Z,10.10
2018-07-06T18:51:14.905Z,11.40
2018-07-06T18:53:43.414Z,10.50
2018-07-06T18:56:12.116Z,9.47
2018-07-06T18:58:40.656Z,9.20
2018-07-06T19:01:09.619Z,16.00
2018-07-06T19:03:39.520Z,9.50
2018-07-06T19:06:08.116Z,9.90
2018-07-06T19:08:37.009Z,9.83
2018-07-06T19:11:05.674Z,8.97
2018-07-06T19:13:34.503Z,9.87
2018-07-06T19:16:02.963Z,10.70
2018-07-06T19:18:31.389Z,11.83
2018-07-06T19:21:00.156Z,9.50
2018-07-06T19:23:28.592Z,11.30
2018-07-06T19:25:57.178Z,10.27
2018-07-06T19:28:25.692Z,9.33
2018-07-06T19:30:54.561Z,10.97
2018-07-06T19:33:22.968Z,12.10
2018-07-06T19:35:51.538Z,10.83
2018-07-06T19:38:20.337Z,15.13
2018-07-06T19:40:49.717Z,10.73
2018-07-06T19:43:18.538Z,10.23
2018-07-06T19:45:47.293Z,10.53
2018-07-06T19:48:15.984Z,11.60
2018-07-06T19:50:44.738Z,14.93
2018-07-06T19:53:15.063Z,19.20
2018-07-06T19:55:43.662Z,13.07
2018-07-06T19:58:12.233Z,13.93
2018-07-06T20:00:41.772Z,14.67
2018-07-06T20:03:10.316Z,13.37
2018-07-06T20:05:38.795Z,14.30
2018-07-06T20:08:07.521Z,13.33
2018-07-06T20:10:36.072Z,14.60
2018-07-06T20:13:05.434Z,17.57
2018-07-06T20:15:33.875Z,13.83
2018-07-06T20:18:02.302Z,12.70
2018-07-06T20:20:30.973Z,18.93
2018-07-06T20:22:59.592Z,11.97
2018-07-06T20:25:28.378Z,14.47
2018-07-06T20:27:56.831Z,12.83
2018-07-06T20:30:25.805Z,12.40
2018-07-06T20:32:54.285Z,13.10
2018-07-06T20:35:22.861Z,15.07
2018-07-06T20:37:51.561Z,16.17
2018-07-06T20:40:20.277Z,13.37
2018-07-06T20:42:48.803Z,13.10
2018-07-06T20:45:17.616Z,20.33
2018-07-06T20:47:46.101Z,14.60
2018-07-06T20:50:14.570Z,13.40
2018-07-06T20:52:43.000Z,13.57
2018-07-06T20:55:11.460Z,14.33
2018-07-06T20:57:40.282Z,13.30
2018-07-06T21:00:08.892Z,14.13
2018-07-06T21:02:37.360Z,14.13
2018-07-06T21:05:05.917Z,16.03
2018-07-06T21:07:34.599Z,13.53
2018-07-06T21:10:03.320Z,13.40
2018-07-06T21:12:31.802Z,16.03
2018-07-06T21:15:00.281Z,16.00
2018-07-06T21:17:28.784Z,17.83
2018-07-06T21:19:57.320Z,17.47
2018-07-06T21:22:25.848Z,14.97
2018-07-06T21:24:54.380Z,21.10
2018-07-06T21:27:22.884Z,15.40
2018-07-06T21:29:51.339Z,16.97
2018-07-06T21:32:19.827Z,16.30
2018-07-06T21:34:48.512Z,14.43
2018-07-06T21:37:17.025Z,16.70
2018-07-06T21:39:45.488Z,14.70
2018-07-06T21:42:13.980Z,15.23
2018-07-06T21:44:42.491Z,16.00
2018-07-06T21:47:11.135Z,15.23
2018-07-06T21:49:39.859Z,15.47
2018-07-06T21:52:08.026Z,16.17
2018-07-06T21:54:36.492Z,19.27
2018-07-06T21:57:04.947Z,16.77
2018-07-06T21:59:33.397Z,16.70
2018-07-06T22:02:02.241Z,18.53
2018-07-06T22:04:30.719Z,18.33
2018-07-06T22:06:59.212Z,16.90
2018-07-06T22:09:27.785Z,17.33
2018-07-06T22:11:56.234Z,20.57
2018-07-06T22:14:24.668Z,18.27
2018-07-06T22:16:53.132Z,21.23
2018-07-06T22:19:21.909Z,17.83
2018-07-06T22:21:50.506Z,23.17
2018-07-06T22:24:18.967Z,17.00
2018-07-06T22:26:47.416Z,23.20
2018-07-06T22:29:16.467Z,18.57
2018-07-06T22:31:44.879Z,21.00
2018-07-06T22:34:13.377Z,18.03
2018-07-06T22:36:42.219Z,17.70
2018-07-06T22:39:10.913Z,18.90
2018-07-06T22:41:39.461Z,18.43
2018-07-06T22:44:08.055Z,19.63
2018-07-06T22:46:36.569Z,18.80
2018-07-06T22:49:05.044Z,19.13
2018-07-06T22:51:33.493Z,20.77
2018-07-06T22:54:02.124Z,20.07
2018-07-06T22:56:30.828Z,28.57
2018-07-06T22:58:59.306Z,22.23
2018-07-06T23:01:27.928Z,21.07
2018-07-06T23:03:56.459Z,26.10
2018-07-06T23:06:25.135Z,20.20
2018-07-06T23:08:53.531Z,20.20
2018-07-06T23:11:22.146Z,21.50
2018-07-06T23:13:50.647Z,20.03
2018-07-06T23:16:19.266Z,18.53
2018-07-06T23:18:47.744Z,19.10
2018-07-06T23:21:16.282Z,20.17
2018-07-06T23:23:45.118Z,18.17
2018-07-06T23:26:13.564Z,21.10
2018-07-06T23:28:43.216Z,18.07
2018-07-06T23:31:11.655Z,19.93
2018-07-06T23:33:40.556Z,20.47
2018-07-06T23:36:08.999Z,18.53
2018-07-06T23:38:37.471Z,18.47
2018-07-06T23:41:06.037Z,17.23
2018-07-06T23:43:34.459Z,23.43
2018-07-06T23:46:03.033Z,21.47
2018-07-06T23:48:31.499Z,22.03
2018-07-06T23:53:40.461Z,26.40
2018-07-06T23:56:08.913Z,22.10
2018-07-06T23:58:37.438Z,18.93
